createdAt,value
2018-07-07T00:01:27.019Z,101964.06
2018-07-07T00:03:56.042Z,101967.89
2018-07-07T00:06:24.830Z,101968.61
2018-07-07T00:08:53.394Z,101970.98
2018-07-07T00:11:22.289Z,101966.92
2018-07-07T00:13:50.862Z,101967.18
2018-07-07T00:16:19.583Z,101964.80
2018-07-07T00:18:48.266Z,101965.19
2018-07-07T00:21:16.846Z,101967.03
2018-07-07T00:23:45.497Z,101970.13
2018-07-07T00:26:14.076Z,101980.02
2018-07-07T00:28:42.691Z,101965.42
2018-07-07T00:31:11.311Z,101971.25
2018-07-07T00:33:40.041Z,101972.19
2018-07-07T00:36:08.567Z,101970.37
2018-07-07T00:38:37.253Z,101974.34
2018-07-07T00:41:06.065Z,101969.95
2018-07-07T00:43:34.725Z,101974.02
2018-07-07T00:46:03.200Z,101968.14
2018-07-07T00:48:31.653Z,101969.73
2018-07-07T00:51:00.391Z,101968.63
2018-07-07T00:53:28.716Z,101975.23
2018-07-07T00:55:57.356Z,101973.21
2018-07-07T00:58:25.840Z,101979.59
2018-07-07T01:00:54.226Z,101971.41
2018-07-07T01:03:23.126Z,101979.37
2018-07-07T01:05:52.272Z,101978.02
2018-07-07T01:08:20.956Z,101986.05
2018-07-07T01:10:49.689Z,101978.24
2018-07-07T01:13:18.080Z,101978.63
2018-07-07T01:15:46.681Z,101982.56
2018-07-07T01:18:15.454Z,101974.98
2018-07-07T01:20:44.140Z,101980.62
2018-07-07T01:23:12.623Z,101985.98
2018-07-07T01:25:41.143Z,101981.91
2018-07-07T01:28:09.918Z,101982.08
2018-07-07T01:30:38.455Z,101974.72
2018-07-07T01:33:06.952Z,101986.05
2018-07-07T01:35:35.387Z,101984.30
2018-07-07T01:38:03.833Z,101985.72
2018-07-07T01:40:32.377Z,101978.25
2018-07-07T01:43:00.811Z,101984.69
2018-07-07T01:45:29.407Z,101980.80
2018-07-07T01:47:57.983Z,101983.50
2018-07-07T01:50:26.497Z,101980.73
2018-07-07T01:52:55.054Z,101978.08
2018-07-07T01:55:23.616Z,101978.19
2018-07-07T01:57:52.187Z,101975.86
2018-07-07T02:00:20.791Z,101974.67
2018-07-07T02:02:49.509Z,101968.13
2018-07-07T02:05:17.973Z,101965.75
2018-07-07T02:07:46.880Z,101971.09
2018-07-07T02:10:15.723Z,101965.52
2018-07-07T02:12:44.317Z,101971.97
2018-07-07T02:15:12.808Z,101963.94
2018-07-07T02:17:41.343Z,101961.08
2018-07-07T02:20:09.660Z,101968.70
2018-07-07T02:22:38.106Z,101971.25
2018-07-07T02:25:06.554Z,101968.45
2018-07-07T02:27:35.024Z,101979.11
2018-07-07T02:30:03.661Z,101978.57
2018-07-07T02:32:32.463Z,101969.57
2018-07-07T02:35:00.949Z,101971.63
2018-07-07T02:37:29.895Z,101972.98
2018-07-07T02:39:58.552Z,101970.42
2018-07-07T02:42:27.130Z,101973.83
2018-07-07T02:44:55.511Z,101969.06
2018-07-07T02:47:24.312Z,101970.36
2018-07-07T02:49:53.100Z,101969.02
2018-07-07T02:52:21.568Z,101969.58
2018-07-07T02:54:50.314Z,101968.00
2018-07-07T02:57:18.651Z,101963.94
2018-07-07T02:59:47.193Z,101967.42
2018-07-07T03:02:15.670Z,101971.31
2018-07-07T03:04:44.021Z,101969.50
2018-07-07T03:07:12.564Z,101970.11
2018-07-07T03:09:40.950Z,101972.67
2018-07-07T03:12:09.732Z,101968.75
2018-07-07T03:14:38.513Z,101974.81
2018-07-07T03:17:07.046Z,101972.20
2018-07-07T03:19:35.574Z,101970.59
2018-07-07T03:22:04.244Z,101975.91
2018-07-07T03:24:32.632Z,101979.95
2018-07-07T03:27:01.211Z,101982.37
2018-07-07T03:29:29.624Z,101988.88
2018-07-07T03:31:58.048Z,101986.98
2018-07-07T03:34:26.854Z,101985.63
2018-07-07T03:36:55.689Z,101989.27
2018-07-07T03:39:25.189Z,101997.16
2018-07-07T03:41:53.559Z,101991.89
2018-07-07T03:44:22.311Z,101988.47
2018-07-07T03:46:50.650Z,101991.14
2018-07-07T03:49:19.327Z,101997.30
2018-07-07T03:51:47.788Z,101993.23
2018-07-07T03:54:16.415Z,101999.20
2018-07-07T03:56:44.966Z,101999.73
2018-07-07T03:59:13.561Z,101997.92
2018-07-07T04:01:42.391Z,102000.40
2018-07-07T04:04:11.015Z,102003.83
2018-07-07T04:06:39.437Z,102006.03
2018-07-07T04:09:07.950Z,102004.55
2018-07-07T04:11:36.550Z,102008.52
2018-07-07T04:14:05.336Z,102012.61
2018-07-07T04:16:33.747Z,102022.56
2018-07-07T04:19:02.260Z,102023.66
2018-07-07T04:21:30.748Z,102031.76
2018-07-07T04:23:59.256Z,102035.80
2018-07-07T04:26:27.598Z,102028.06
2018-07-07T04:28:56.095Z,102034.23
2018-07-07T04:31:24.864Z,102032.48
2018-07-07T04:33:53.553Z,102035.36
2018-07-07T04:36:22.024Z,102033.50
2018-07-07T04:38:50.587Z,102039.95
2018-07-07T04:41:18.988Z,102038.23
2018-07-07T04:43:47.507Z,102037.92
2018-07-07T04:46:16.129Z,102038.73
2018-07-07T04:48:44.755Z,102048.73
2018-07-07T04:51:13.369Z,102045.45
2018-07-07T04:53:41.923Z,102045.94
2018-07-07T04:56:10.405Z,102048.05
2018-07-07T04:58:39.061Z,102047.91
2018-07-07T05:01:07.652Z,102050.08
2018-07-07T05:03:36.268Z,102058.52
2018-07-07T05:06:04.976Z,102060.58
2018-07-07T05:08:33.482Z,102060.73
2018-07-07T05:11:02.100Z,102065.05
2018-07-07T05:13:30.583Z,102059.57
2018-07-07T05:15:59.484Z,102062.70
2018-07-07T05:18:27.956Z,102058.81
2018-07-07T05:20:56.772Z,102061.20
2018-07-07T05:23:25.161Z,102071.28
2018-07-07T05:25:53.725Z,102063.08
2018-07-07T05:28:22.454Z,102076.46
2018-07-07T05:30:51.035Z,102071.30
2018-07-07T05:33:19.463Z,102067.59
2018-07-07T05:35:48.255Z,102076.73
2018-07-07T05:38:17.067Z,102079.00
2018-07-07T05:40:49.445Z,102073.84
2018-07-07T05:43:17.917Z,102071.05
2018-07-07T05:45:46.342Z,102070.11
2018-07-07T05:48:15.061Z,102072.23
2018-07-07T05:50:43.566Z,102085.23
2018-07-07T05:53:12.128Z,102081.13
2018-07-07T05:55:41.238Z,102082.39
2018-07-07T05:58:10.010Z,102073.71
2018-07-07T06:00:38.652Z,102079.10
2018-07-07T06:03:07.597Z,102076.21
2018-07-07T06:05:37.850Z,102078.27
2018-07-07T06:08:08.359Z,102080.30
2018-07-07T06:10:45.377Z,102082.53
2018-07-07T06:13:15.057Z,102083.63
2018-07-07T06:15:52.153Z,102079.80
2018-07-07T06:18:20.834Z,102081.52
2018-07-07T06:20:49.381Z,102081.95
2018-07-07T06:23:18.124Z,102085.66
2018-07-07T06:25:50.679Z,102089.52
2018-07-07T06:28:19.704Z,102091.89
2018-07-07T06:30:48.114Z,102088.56
2018-07-07T06:33:16.828Z,102093.70
2018-07-07T06:35:45.805Z,102100.72
2018-07-07T06:38:14.723Z,102097.64
2018-07-07T06:40:43.328Z,102100.78
2018-07-07T06:43:11.746Z,102098.02
2018-07-07T06:45:40.497Z,102100.63
2018-07-07T06:48:09.581Z,102098.45
2018-07-07T06:50:38.133Z,102098.11
2018-07-07T06:53:06.648Z,102090.25
2018-07-07T06:55:35.383Z,102098.37
2018-07-07T06:58:04.299Z,102095.22
2018-07-07T07:00:32.803Z,102089.22
2018-07-07T07:03:01.452Z,102097.98
2018-07-07T07:05:29.892Z,102096.36
2018-07-07T07:07:58.416Z,102100.22
2018-07-07T07:10:27.492Z,102101.03
2018-07-07T07:12:56.005Z,102101.22
2018-07-07T07:15:24.452Z,102102.63
2018-07-07T07:17:53.211Z,102099.47
2018-07-07T07:20:21.766Z,102102.45
2018-07-07T07:22:50.407Z,102106.23
2018-07-07T07:25:18.775Z,102104.55
2018-07-07T07:27:47.355Z,102105.75
2018-07-07T07:30:15.913Z,102107.59
2018-07-07T07:32:44.526Z,102107.87
2018-07-07T07:35:13.325Z,102103.87
2018-07-07T07:37:41.647Z,102103.19
2018-07-07T07:40:10.445Z,102100.61
2018-07-07T07:42:39.305Z,102102.05
2018-07-07T07:45:08.035Z,102102.80
2018-07-07T07:47:36.493Z,102094.41
2018-07-07T07:50:05.453Z,102101.88
2018-07-07T07:52:34.425Z,102100.86
2018-07-07T07:55:02.971Z,102097.98
2018-07-07T07:57:31.567Z,102105.94
2018-07-07T08:00:00.297Z,102097.66
2018-07-07T08:02:28.660Z,102098.97
2018-07-07T08:04:58.706Z,102106.92
2018-07-07T08:07:28.263Z,102100.33
2018-07-07T08:09:57.053Z,102104.19
2018-07-07T08:12:26.307Z,102104.22
2018-07-07T08:14:54.930Z,102108.00
2018-07-07T08:17:23.575Z,102101.61
2018-07-07T08:19:53.637Z,102105.58
2018-07-07T08:22:22.149Z,102103.33
2018-07-07T08:24:50.618Z,102107.92
2018-07-07T08:27:19.262Z,102103.18
2018-07-07T08:29:48.148Z,102102.17
2018-07-07T08:32:17.068Z,102099.45
2018-07-07T08:34:45.848Z,102092.88
2018-07-07T08:37:14.476Z,102092.24
2018-07-07T08:39:43.153Z,102097.08
2018-07-07T08:42:11.962Z,102101.70
2018-07-07T08:44:40.376Z,102100.05
2018-07-07T08:47:08.820Z,102094.44
2018-07-07T08:49:37.156Z,102097.53
2018-07-07T08:52:05.530Z,102108.38
2018-07-07T08:54:33.923Z,102105.63
2018-07-07T08:57:02.433Z,102097.16
2018-07-07T08:59:30.837Z,102104.43
2018-07-07T09:01:59.452Z,102103.41
2018-07-07T09:04:28.104Z,102103.90
2018-07-07T09:06:56.652Z,102105.43
2018-07-07T09:09:25.217Z,102101.64
2018-07-07T09:11:53.781Z,102105.32
2018-07-07T09:14:22.513Z,102102.48
2018-07-07T09:16:50.913Z,102100.44
2018-07-07T09:19:19.897Z,102095.38
2018-07-07T09:21:48.468Z,102100.08
2018-07-07T09:24:17.160Z,102089.88
2018-07-07T09:26:45.882Z,102090.45
2018-07-07T09:29:14.258Z,102087.91
2018-07-07T09:31:42.664Z,102088.98
2018-07-07T09:34:11.439Z,102096.22
2018-07-07T09:36:40.265Z,102089.12
2018-07-07T09:39:08.829Z,102092.06
2018-07-07T09:41:37.585Z,102087.12
2018-07-07T09:44:06.005Z,102082.81
2018-07-07T09:46:34.521Z,102088.02
2018-07-07T09:49:03.593Z,102080.66
2018-07-07T09:51:32.080Z,102081.70
2018-07-07T09:54:00.956Z,102085.03
2018-07-07T09:56:29.491Z,102084.89
2018-07-07T09:58:57.995Z,102075.24
2018-07-07T10:01:26.522Z,102072.16
2018-07-07T10:03:54.924Z,102080.76
2018-07-07T10:06:23.571Z,102077.52
2018-07-07T10:08:52.180Z,102077.60
2018-07-07T10:11:20.807Z,102081.48
2018-07-07T10:13:49.524Z,102076.25
2018-07-07T10:16:18.137Z,102075.93
2018-07-07T10:18:46.773Z,102077.28
2018-07-07T10:21:15.185Z,102076.95
2018-07-07T10:23:43.697Z,102082.83
2018-07-07T10:26:12.168Z,102080.89
2018-07-07T10:28:40.594Z,102076.84
2018-07-07T10:31:09.112Z,102078.98
2018-07-07T10:33:37.667Z,102088.72
2018-07-07T10:36:06.720Z,102082.51
2018-07-07T10:38:35.284Z,102081.05
2018-07-07T10:41:04.579Z,102084.67
2018-07-07T10:43:33.217Z,102086.28
2018-07-07T10:46:01.542Z,102077.55
2018-07-07T10:48:30.034Z,102085.48
2018-07-07T10:50:58.621Z,102081.39
2018-07-07T10:53:27.195Z,102083.66
2018-07-07T10:55:56.204Z,102086.80
2018-07-07T10:58:24.699Z,102083.78
2018-07-07T11:00:53.900Z,102072.25
2018-07-07T11:03:22.261Z,102072.50
2018-07-07T11:05:50.666Z,102072.11
2018-07-07T11:08:19.177Z,102078.96
2018-07-07T11:10:47.572Z,102077.84
2018-07-07T11:13:16.295Z,102076.28
2018-07-07T11:15:44.915Z,102070.52
2018-07-07T11:18:13.453Z,102066.47
2018-07-07T11:20:42.025Z,102065.09
2018-07-07T11:23:10.683Z,102072.30
2018-07-07T11:25:40.223Z,102073.56
2018-07-07T11:28:08.669Z,102059.88
2018-07-07T11:30:37.522Z,102058.86
2018-07-07T11:33:06.045Z,102064.73
2018-07-07T11:35:34.701Z,102055.61
2018-07-07T11:38:03.776Z,102063.63
2018-07-07T11:40:32.980Z,102059.56
2018-07-07T11:43:02.096Z,102060.00
2018-07-07T11:45:30.702Z,102059.23
2018-07-07T11:47:59.816Z,102063.42
2018-07-07T11:50:28.259Z,102073.34
2018-07-07T11:52:56.647Z,102061.74
2018-07-07T11:55:24.993Z,102061.22
2018-07-07T11:57:53.492Z,102058.27
2018-07-07T12:00:22.261Z,102053.75
2018-07-07T12:02:50.700Z,102056.66
2018-07-07T12:05:19.464Z,102050.45
2018-07-07T12:07:48.000Z,102054.36
2018-07-07T12:10:16.527Z,102055.77
2018-07-07T12:12:44.992Z,102050.05
2018-07-07T12:15:13.945Z,102056.89
2018-07-07T12:17:42.556Z,102057.98
2018-07-07T12:20:11.403Z,102056.18
2018-07-07T12:22:39.918Z,102051.61
2018-07-07T12:25:08.763Z,102048.73
2018-07-07T12:27:37.441Z,102043.57
2018-07-07T12:30:05.860Z,102044.25
2018-07-07T12:32:34.472Z,102043.57
2018-07-07T12:35:03.731Z,102039.09
2018-07-07T12:37:32.277Z,102042.49
2018-07-07T12:40:01.023Z,102036.06
2018-07-07T12:42:29.546Z,102042.51
2018-07-07T12:44:58.043Z,102046.72
2018-07-07T12:47:26.525Z,102032.59
2018-07-07T12:49:54.846Z,102036.47
2018-07-07T12:52:23.461Z,102032.22
2018-07-07T12:54:51.943Z,102028.53
2018-07-07T12:57:20.472Z,102022.70
2018-07-07T12:59:49.083Z,102020.66
2018-07-07T13:02:17.770Z,102027.46
2018-07-07T13:04:46.352Z,102020.94
2018-07-07T13:07:14.975Z,102022.36
2018-07-07T13:09:43.517Z,102018.05
2018-07-07T13:12:11.944Z,102026.55
2018-07-07T13:14:40.553Z,102016.05
2018-07-07T13:17:09.102Z,102015.59
2018-07-07T13:19:37.655Z,102016.64
2018-07-07T13:22:06.164Z,102018.01
2018-07-07T13:24:34.581Z,102019.63
2018-07-07T13:27:02.924Z,102018.67
2018-07-07T13:29:31.336Z,102020.45
2018-07-07T13:31:59.853Z,102018.81
2018-07-07T13:34:28.276Z,102015.84
2018-07-07T13:36:57.008Z,102021.63
2018-07-07T13:39:25.531Z,102023.11
2018-07-07T13:41:54.158Z,102020.31
2018-07-07T13:44:22.674Z,102023.59
2018-07-07T13:46:51.064Z,102030.47
2018-07-07T13:49:19.508Z,102027.45
2018-07-07T13:51:48.026Z,102017.20
2018-07-07T13:54:16.649Z,102011.81
2018-07-07T13:56:45.403Z,102019.84
2018-07-07T13:59:14.192Z,102020.03
2018-07-07T14:01:42.765Z,102013.56
2018-07-07T14:04:11.227Z,102017.98
2018-07-07T14:06:39.598Z,102022.44
2018-07-07T14:09:08.762Z,102022.16
2018-07-07T14:11:37.173Z,102005.07
2018-07-07T14:14:05.557Z,102014.26
2018-07-07T14:16:34.097Z,102010.36
2018-07-07T14:19:02.695Z,102012.69
2018-07-07T14:21:31.466Z,102015.28
2018-07-07T14:23:59.976Z,102009.88
2018-07-07T14:26:28.362Z,102009.51
2018-07-07T14:28:57.114Z,102019.61
2018-07-07T14:31:25.681Z,102020.81
2018-07-07T14:33:54.400Z,102007.32
2018-07-07T14:36:22.883Z,102005.22
2018-07-07T14:38:51.533Z,102004.78
2018-07-07T14:41:21.381Z,102020.16
2018-07-07T14:43:58.340Z,101999.44
2018-07-07T14:46:27.297Z,101999.67
2018-07-07T14:48:55.849Z,102009.83
2018-07-07T14:51:24.782Z,102007.62
2018-07-07T14:53:53.740Z,101997.80
2018-07-07T14:56:23.565Z,102002.02
2018-07-07T14:58:52.139Z,102004.36
2018-07-07T15:01:21.038Z,102002.79
2018-07-07T15:03:49.573Z,102005.29
2018-07-07T15:06:18.509Z,102001.60
2018-07-07T15:08:46.802Z,101996.31
2018-07-07T15:11:15.707Z,101988.55
2018-07-07T15:13:46.391Z,101994.45
2018-07-07T15:16:15.169Z,101988.61
2018-07-07T15:18:44.047Z,101997.67
2018-07-07T15:21:12.745Z,101993.55
2018-07-07T15:23:41.422Z,101998.30
2018-07-07T15:26:10.091Z,101988.72
2018-07-07T15:28:38.529Z,101990.73
2018-07-07T15:31:07.208Z,101990.21
2018-07-07T15:33:35.668Z,101992.35
2018-07-07T15:36:04.432Z,101986.30
2018-07-07T15:38:33.220Z,101984.58
2018-07-07T15:41:01.765Z,101983.77
2018-07-07T15:43:30.629Z,101971.93
2018-07-07T15:45:59.265Z,101983.13
2018-07-07T15:48:27.966Z,101976.98
2018-07-07T15:50:56.672Z,101986.67
2018-07-07T15:53:25.868Z,101982.75
2018-07-07T15:55:54.790Z,101984.52
2018-07-07T15:58:23.192Z,101980.72
2018-07-07T16:00:51.859Z,101984.44
2018-07-07T16:03:20.342Z,101971.13
2018-07-07T16:05:49.012Z,101970.34
2018-07-07T16:08:17.729Z,101960.97
2018-07-07T16:10:46.444Z,101964.89
2018-07-07T16:13:14.958Z,101970.08
2018-07-07T16:15:43.697Z,101969.08
2018-07-07T16:18:12.225Z,101978.80
2018-07-07T16:20:41.084Z,101970.81
2018-07-07T16:23:09.706Z,101972.13
2018-07-07T16:25:38.143Z,101978.00
2018-07-07T16:28:07.541Z,101983.92
2018-07-07T16:30:36.296Z,101972.43
2018-07-07T16:33:04.978Z,101974.70
2018-07-07T16:35:33.484Z,101965.20
2018-07-07T16:38:01.766Z,101961.18
2018-07-07T16:40:30.512Z,101963.47
2018-07-07T16:43:00.497Z,101962.70
2018-07-07T16:45:29.455Z,101966.51
2018-07-07T16:47:58.264Z,101968.83
2018-07-07T16:50:27.554Z,101966.58
2018-07-07T16:52:55.974Z,101963.34
2018-07-07T16:55:25.304Z,101959.41
2018-07-07T16:57:53.978Z,101975.77
2018-07-07T17:00:22.518Z,101964.48
2018-07-07T17:02:51.792Z,101969.84
2018-07-07T17:05:20.836Z,101972.61
2018-07-07T17:07:49.791Z,101967.83
2018-07-07T17:10:19.583Z,101963.33
2018-07-07T17:12:48.411Z,101971.25
2018-07-07T17:15:17.468Z,101963.94
2018-07-07T17:17:46.548Z,101963.50
2018-07-07T17:20:15.184Z,101967.03
2018-07-07T17:22:45.070Z,101968.04
2018-07-07T17:25:13.613Z,101970.56
2018-07-07T17:27:43.084Z,101970.06
2018-07-07T17:30:11.740Z,101966.10
2018-07-07T17:32:40.523Z,101964.59
2018-07-07T17:35:09.041Z,101967.94
2018-07-07T17:37:37.844Z,101976.77
2018-07-07T17:40:06.760Z,101969.86
2018-07-07T17:42:35.555Z,101973.75
2018-07-07T17:45:04.336Z,101975.77
2018-07-07T17:47:33.269Z,101967.58
2018-07-07T17:50:03.181Z,101981.65
2018-07-07T17:52:32.767Z,101978.75
2018-07-07T17:55:02.433Z,101976.77
2018-07-07T17:57:30.940Z,101975.31
2018-07-07T17:59:59.655Z,101975.38
2018-07-07T18:02:28.670Z,101980.33
2018-07-07T18:04:57.149Z,101979.56
2018-07-07T18:07:25.891Z,101985.92
2018-07-07T18:09:54.321Z,101985.01
2018-07-07T18:12:22.932Z,101984.17
2018-07-07T18:14:51.831Z,101993.45
2018-07-07T18:17:20.367Z,101992.16
2018-07-07T18:19:49.012Z,101993.66
2018-07-07T18:22:17.692Z,101991.28
2018-07-07T18:24:46.318Z,101993.30
2018-07-07T18:27:14.947Z,101993.35
2018-07-07T18:29:43.875Z,101990.13
2018-07-07T18:32:12.464Z,101996.83
2018-07-07T18:34:41.168Z,102001.41
2018-07-07T18:37:09.649Z,101990.78
2018-07-07T18:39:38.420Z,101992.59
2018-07-07T18:42:07.549Z,101991.91
2018-07-07T18:44:36.153Z,101997.00
2018-07-07T18:47:04.962Z,101991.92
2018-07-07T18:49:33.447Z,102000.53
2018-07-07T18:52:01.979Z,102000.52
2018-07-07T18:54:30.624Z,101995.56
2018-07-07T18:56:59.285Z,101996.69
2018-07-07T18:59:27.667Z,101999.05
2018-07-07T19:01:56.364Z,101994.73
2018-07-07T19:04:24.768Z,101999.84
2018-07-07T19:06:53.357Z,101996.65
2018-07-07T19:09:22.057Z,102001.85
2018-07-07T19:11:50.890Z,102006.17
2018-07-07T19:14:19.760Z,102002.53
2018-07-07T19:16:48.331Z,102004.92
2018-07-07T19:19:17.337Z,101998.92
2018-07-07T19:22:51.418Z,101996.30
2018-07-07T19:25:25.535Z,102012.03
2018-07-07T19:27:54.135Z,102006.81
2018-07-07T19:30:22.659Z,102002.15
2018-07-07T19:32:56.761Z,102008.17
2018-07-07T19:35:30.795Z,102013.02
2018-07-07T19:37:59.482Z,102012.89
2018-07-07T19:40:28.083Z,102016.17
2018-07-07T19:42:56.787Z,102015.83
2018-07-07T19:45:25.581Z,102017.65
2018-07-07T19:47:54.326Z,102021.91
2018-07-07T19:50:23.147Z,102024.50
2018-07-07T19:52:51.616Z,102022.12
2018-07-07T19:55:20.353Z,102025.64
2018-07-07T19:57:48.776Z,102028.92
2018-07-07T20:00:17.533Z,102027.42
2018-07-07T20:02:45.940Z,102025.94
2018-07-07T20:05:14.499Z,102029.55
2018-07-07T20:07:43.135Z,102020.37
2018-07-07T20:10:12.219Z,102024.33
2018-07-07T20:12:41.154Z,102025.29
2018-07-07T20:15:09.945Z,102029.75
2018-07-07T20:18:05.940Z,102029.50
2018-07-07T20:20:40.300Z,102024.95
2018-07-07T20:23:10.016Z,102027.45
2018-07-07T20:25:39.320Z,102033.15
2018-07-07T20:28:13.515Z,102033.10
2018-07-07T20:30:42.282Z,102036.53
2018-07-07T20:33:11.303Z,102028.00
2018-07-07T20:35:40.248Z,102028.55
2018-07-07T20:38:09.053Z,102029.22
2018-07-07T20:40:37.600Z,102032.73
2018-07-07T20:43:06.888Z,102032.33
2018-07-07T20:45:35.377Z,102031.27
2018-07-07T20:48:04.001Z,102036.30
2018-07-07T20:50:32.704Z,102035.83
2018-07-07T20:53:01.565Z,102039.48
2018-07-07T20:55:30.237Z,102035.41
2018-07-07T20:57:59.332Z,102042.26
2018-07-07T21:00:28.008Z,102040.83
2018-07-07T21:02:56.649Z,102042.88
2018-07-07T21:05:25.476Z,102043.98
2018-07-07T21:07:53.803Z,102049.77
2018-07-07T21:10:22.453Z,102047.89
2018-07-07T21:12:50.932Z,102049.77
2018-07-07T21:15:19.866Z,102050.05
2018-07-07T21:17:48.992Z,102052.19
2018-07-07T21:20:17.661Z,102044.05
2018-07-07T21:22:46.350Z,102048.72
2018-07-07T21:25:14.837Z,102046.19
2018-07-07T21:27:43.652Z,102050.98
2018-07-07T21:30:12.171Z,102057.77
2018-07-07T21:32:41.073Z,102053.28
2018-07-07T21:35:09.566Z,102053.50
2018-07-07T21:37:38.453Z,102053.83
2018-07-07T21:40:07.147Z,102057.57
2018-07-07T21:42:35.725Z,102067.23
2018-07-07T21:45:04.787Z,102066.85
2018-07-07T21:47:33.404Z,102063.01
2018-07-07T21:50:02.017Z,102060.59
2018-07-07T21:52:30.595Z,102064.66
2018-07-07T21:54:59.208Z,102061.63
2018-07-07T21:57:33.356Z,102067.50
2018-07-07T22:00:02.202Z,102074.39
2018-07-07T22:02:36.110Z,102075.03
2018-07-07T22:05:10.193Z,102073.58
2018-07-07T22:07:40.208Z,102077.03
2018-07-07T22:10:08.837Z,102080.78
2018-07-07T22:12:37.330Z,102086.36
2018-07-07T22:15:06.707Z,102084.52
2018-07-07T22:17:35.181Z,102091.73
2018-07-07T22:20:03.951Z,102090.19
2018-07-07T22:22:32.450Z,102090.03
2018-07-07T22:25:00.986Z,102088.11
2018-07-07T22:27:29.827Z,102091.83
2018-07-07T22:29:58.524Z,102090.92
2018-07-07T22:32:26.984Z,102094.34
2018-07-07T22:35:00.004Z,102086.19
2018-07-07T22:37:28.448Z,102085.59
2018-07-07T22:39:57.176Z,102090.51
2018-07-07T22:42:25.746Z,102094.30
2018-07-07T22:44:54.247Z,102106.12
2018-07-07T22:47:22.774Z,102096.53
2018-07-07T22:49:51.266Z,102105.45
2018-07-07T22:52:19.700Z,102100.59
2018-07-07T22:54:48.174Z,102102.62
2018-07-07T22:57:16.619Z,102099.09
2018-07-07T22:59:45.264Z,102104.55
2018-07-07T23:02:13.830Z,102106.97
2018-07-07T23:04:42.519Z,102101.95
2018-07-07T23:07:10.992Z,102098.94
2018-07-07T23:09:39.727Z,102093.92
2018-07-07T23:12:08.453Z,102104.70
2018-07-07T23:14:37.161Z,102104.83
2018-07-07T23:17:05.904Z,102099.88
2018-07-07T23:19:34.563Z,102097.86
2018-07-07T23:22:03.852Z,102098.69
2018-07-07T23:24:32.416Z,102094.17
2018-07-07T23:27:00.941Z,102094.83
2018-07-07T23:29:29.515Z,102093.80
2018-07-07T23:31:58.228Z,102090.52
2018-07-07T23:34:26.637Z,102094.97
2018-07-07T23:36:55.351Z,102093.80
2018-07-07T23:39:24.113Z,102092.53
2018-07-07T23:41:52.638Z,102094.61
2018-07-07T23:44:21.433Z,102095.47
2018-07-07T23:46:50.360Z,102097.98
2018-07-07T23:49:19.012Z,102089.92
2018-07-07T23:51:47.829Z,102092.01
2018-07-07T23:54:16.653Z,102095.25
2018-07-07T23:56:45.162Z,102094.94
2018-07-07T23:59:13.838Z,102099.60
